This is the latest recevied weather packets stored in our database for station/object IN3MWE-10. If no packets are shown the sender has not sent any weather packets the latest 10 day(s).
| Time | Temp. | Humidity | Pressure | Rain* | Wind** | Luminosity | Snow |
|---|---|---|---|---|---|---|---|
| 1777584024 | 12.78° C | 53% | 988.3 hPa | - | - | - | - |
| 1777583124 | 13.33° C | 53% | 988.2 hPa | - | - | - | - |
| 1777582224 | 13.33° C | 53% | 988 hPa | - | - | - | - |
| 1777581324 | 13.33° C | 52% | 987.8 hPa | - | - | - | - |
| 1777580424 | 13.33° C | 53% | 987.6 hPa | - | - | - | - |
| 1777579524 | 13.89° C | 51% | 987.4 hPa | - | - | - | - |
| 1777578624 | 13.89° C | 50% | 987.2 hPa | - | - | - | - |
| 1777577723 | 14.44° C | 50% | 987 hPa | - | - | - | - |
| 1777576823 | 14.44° C | 48% | 986.7 hPa | - | - | - | - |
| 1777575923 | 15° C | 47% | 986.4 hPa | - | - | - | - |
| 1777575023 | 15.56° C | 43% | 986.1 hPa | - | - | - | - |
| 1777574123 | 16.11° C | 41% | 985.8 hPa | - | - | - | - |
| 1777573223 | 16.67° C | 39% | 985.2 hPa | - | - | - | - |
| 1777572323 | 17.22° C | 37% | 984.9 hPa | - | - | - | - |
| 1777571422 | 17.22° C | 37% | 984.6 hPa | - | - | - | - |
| 1777570522 | 17.78° C | 36% | 984.3 hPa | - | - | - | - |
| 1777569622 | 17.78° C | 35% | 983.8 hPa | - | - | - | - |
| 1777568722 | 18.33° C | 34% | 983.6 hPa | - | - | - | - |
| 1777567822 | 18.89° C | 33% | 983.5 hPa | - | - | - | - |
| 1777566922 | 19.44° C | 32% | 983.5 hPa | - | - | - | - |
| 1777566022 | 21.11° C | 29% | 983.4 hPa | - | - | - | - |
| 1777565122 | 22.22° C | 27% | 983.1 hPa | - | - | - | - |
| 1777564221 | 22.78° C | 26% | 983 hPa | - | - | - | - |
| 1777563321 | 24.44° C | 24% | 983 hPa | - | - | - | - |
| 1777562421 | 23.33° C | 24% | 983 hPa | - | - | - | - |
* Rain since midnight (hover to see other rain measurements)
** Current wind speed in m/s (hover to see current wind gust speed)